METAR AND TAF INFORMATION
METAR FOR SBCC
ADDS - METARS form results

(1127 UTC 19 January 2019)
Data provider http://aviationweather.gov/metar/data/
 
METAR text: SBCC 191100Z 19005KT 9999 FEW030 SCT100 20/20 Q1015
Conditions at: SBCC (CACHIMBO , BR) observed 1100 UTC 19 January 2019
Temperature: 20.0°C (68°F)
Dewpoint: 20.0°C (68°F) [RH = 100%]
Pressure (altimeter): 29.97 inches Hg (1015.0 mb)
Winds: from the S (190 degrees) at 6 MPH (5 knots; 2.6 m/s)
Visibility: 6 or more miles (10+ km)
Ceiling: at least 12,000 feet AGL
Clouds: few clouds at 3000 feet AGL
scattered clouds at 10000 feet AGL
Weather: no significant weather observed at this time

 AIRPORT MAP

 RUNWAY INFORMATION
Runway 12 Runway length 8527 ft Runway width 148 ft
Runway elevation 0 ft Runway displaced threshold 0 ft Runway heading 0
Runway 30 Runway length 8527 ft Runway width 148 ft
Runway elevation 0 ft Runway displaced threshold 0 ft Runway heading 0

 AIRPORT FREQUENCIES
Type AFIS Name RDO Frequency 125.9 MHZ

 AIRPORT NEAR NAVIGATION AIDS
Type VOR-DME Name Cachimbo Frequency 115100 KHZ
Type NDB Name Cachimbo Frequency 215 KHZ



Powered by Virtual Airlines Manager [v2.6.2]